sensor_id;sensor_type;location;lat;lon;timestamp;pressure;altitude;pressure_sealevel;temperature;humidity
84524;BME280;74765;44.538;18.668;2024-01-30T00:01:55;101088.34;;;1.75;60.54
84524;BME280;74765;44.538;18.668;2024-01-30T00:04:21;101094.00;;;1.83;60.29
84524;BME280;74765;44.538;18.668;2024-01-30T00:06:47;101092.41;;;1.95;60.13
84524;BME280;74765;44.538;18.668;2024-01-30T00:09:12;101092.22;;;2.12;59.14
84524;BME280;74765;44.538;18.668;2024-01-30T00:11:39;101102.13;;;1.94;60.17
84524;BME280;74765;44.538;18.668;2024-01-30T00:14:05;101107.41;;;2.08;59.96
84524;BME280;74765;44.538;18.668;2024-01-30T00:16:30;101101.84;;;2.13;59.14
84524;BME280;74765;44.538;18.668;2024-01-30T00:18:57;101100.16;;;2.12;59.04
84524;BME280;74765;44.538;18.668;2024-01-30T00:21:23;101105.50;;;2.10;59.29
84524;BME280;74765;44.538;18.668;2024-01-30T00:23:49;101106.84;;;2.03;59.90
84524;BME280;74765;44.538;18.668;2024-01-30T00:26:15;101107.84;;;1.87;60.67
84524;BME280;74765;44.538;18.668;2024-01-30T00:28:41;101103.91;;;1.94;60.30
84524;BME280;74765;44.538;18.668;2024-01-30T00:31:07;101101.53;;;1.75;60.08
84524;BME280;74765;44.538;18.668;2024-01-30T00:33:33;101111.66;;;1.67;60.49
84524;BME280;74765;44.538;18.668;2024-01-30T00:35:59;101103.31;;;1.74;60.53
84524;BME280;74765;44.538;18.668;2024-01-30T00:38:24;101104.25;;;1.73;60.27
84524;BME280;74765;44.538;18.668;2024-01-30T00:40:50;101098.91;;;1.89;60.50
84524;BME280;74765;44.538;18.668;2024-01-30T00:43:16;101105.78;;;1.92;59.68
84524;BME280;74765;44.538;18.668;2024-01-30T00:45:45;101100.13;;;1.84;59.70
84524;BME280;74765;44.538;18.668;2024-01-30T00:48:10;101106.03;;;1.87;59.31
84524;BME280;74765;44.538;18.668;2024-01-30T00:50:36;101097.19;;;1.88;59.77
84524;BME280;74765;44.538;18.668;2024-01-30T00:53:02;101108.44;;;1.62;59.82
84524;BME280;74765;44.538;18.668;2024-01-30T00:55:27;101104.44;;;1.70;60.04
84524;BME280;74765;44.538;18.668;2024-01-30T00:57:53;101104.69;;;1.66;59.98
84524;BME280;74765;44.538;18.668;2024-01-30T01:00:19;101108.06;;;1.68;60.22
84524;BME280;74765;44.538;18.668;2024-01-30T01:02:46;101106.38;;;1.67;59.72
84524;BME280;74765;44.538;18.668;2024-01-30T01:05:12;101102.50;;;1.58;60.36
84524;BME280;74765;44.538;18.668;2024-01-30T01:07:38;101102.34;;;1.61;60.13
84524;BME280;74765;44.538;18.668;2024-01-30T01:10:06;101104.78;;;1.64;60.43
84524;BME280;74765;44.538;18.668;2024-01-30T01:12:32;101103.97;;;1.78;59.62
84524;BME280;74765;44.538;18.668;2024-01-30T01:14:57;101107.91;;;1.71;60.17
84524;BME280;74765;44.538;18.668;2024-01-30T01:17:23;101104.06;;;1.47;60.00
84524;BME280;74765;44.538;18.668;2024-01-30T01:19:49;101107.09;;;1.55;59.94
84524;BME280;74765;44.538;18.668;2024-01-30T01:22:16;101104.66;;;1.52;60.48
84524;BME280;74765;44.538;18.668;2024-01-30T01:24:42;101106.88;;;1.44;60.81
84524;BME280;74765;44.538;18.668;2024-01-30T01:27:08;101104.38;;;1.56;59.66
84524;BME280;74765;44.538;18.668;2024-01-30T01:29:34;101100.63;;;1.30;60.66
84524;BME280;74765;44.538;18.668;2024-01-30T01:31:59;101100.53;;;1.32;59.94
84524;BME280;74765;44.538;18.668;2024-01-30T01:34:25;101107.75;;;1.28;59.34
84524;BME280;74765;44.538;18.668;2024-01-30T01:36:51;101098.56;;;1.36;59.95
84524;BME280;74765;44.538;18.668;2024-01-30T01:39:22;101096.19;;;1.31;59.52
84524;BME280;74765;44.538;18.668;2024-01-30T01:41:49;101097.78;;;1.33;59.30
84524;BME280;74765;44.538;18.668;2024-01-30T01:44:14;101101.38;;;1.33;59.14
84524;BME280;74765;44.538;18.668;2024-01-30T01:46:40;101103.78;;;1.21;59.35
84524;BME280;74765;44.538;18.668;2024-01-30T01:49:06;101107.06;;;1.41;59.61
84524;BME280;74765;44.538;18.668;2024-01-30T01:51:34;101100.94;;;1.40;59.22
84524;BME280;74765;44.538;18.668;2024-01-30T01:54:04;101098.03;;;1.45;58.66
84524;BME280;74765;44.538;18.668;2024-01-30T01:56:31;101106.03;;;1.43;59.25
84524;BME280;74765;44.538;18.668;2024-01-30T01:59:00;101102.75;;;1.54;58.01
84524;BME280;74765;44.538;18.668;2024-01-30T02:01:31;101106.16;;;1.10;59.41
84524;BME280;74765;44.538;18.668;2024-01-30T02:03:59;101104.94;;;1.47;59.55
84524;BME280;74765;44.538;18.668;2024-01-30T02:06:25;101102.53;;;1.43;59.16
84524;BME280;74765;44.538;18.668;2024-01-30T02:08:51;101106.06;;;1.57;59.09
84524;BME280;74765;44.538;18.668;2024-01-30T02:11:17;101101.91;;;1.53;58.31
84524;BME280;74765;44.538;18.668;2024-01-30T02:13:43;101107.13;;;1.39;59.02
84524;BME280;74765;44.538;18.668;2024-01-30T02:16:09;101105.16;;;1.43;59.50
84524;BME280;74765;44.538;18.668;2024-01-30T02:18:35;101105.34;;;1.40;58.55
84524;BME280;74765;44.538;18.668;2024-01-30T02:21:07;101112.34;;;1.25;59.46
84524;BME280;74765;44.538;18.668;2024-01-30T02:23:33;101110.38;;;1.28;58.88
84524;BME280;74765;44.538;18.668;2024-01-30T02:26:00;101110.84;;;1.21;58.67
84524;BME280;74765;44.538;18.668;2024-01-30T02:28:26;101104.63;;;1.22;59.24
84524;BME280;74765;44.538;18.668;2024-01-30T02:30:53;101103.38;;;1.13;59.25
84524;BME280;74765;44.538;18.668;2024-01-30T02:33:19;101107.13;;;1.09;59.13
84524;BME280;74765;44.538;18.668;2024-01-30T02:35:45;101101.50;;;1.15;58.92
84524;BME280;74765;44.538;18.668;2024-01-30T02:38:10;101110.78;;;0.91;59.72
84524;BME280;74765;44.538;18.668;2024-01-30T02:40:36;101106.19;;;0.95;59.71
84524;BME280;74765;44.538;18.668;2024-01-30T02:43:03;101112.97;;;0.83;59.66
84524;BME280;74765;44.538;18.668;2024-01-30T02:45:28;101115.38;;;0.87;59.94
84524;BME280;74765;44.538;18.668;2024-01-30T02:47:54;101114.69;;;1.00;59.30
84524;BME280;74765;44.538;18.668;2024-01-30T02:50:20;101117.34;;;1.00;58.54
84524;BME280;74765;44.538;18.668;2024-01-30T02:52:46;101115.50;;;1.00;58.56
84524;BME280;74765;44.538;18.668;2024-01-30T02:55:12;101112.13;;;0.98;58.90
84524;BME280;74765;44.538;18.668;2024-01-30T02:57:38;101111.63;;;1.07;58.87
84524;BME280;74765;44.538;18.668;2024-01-30T03:00:05;101118.66;;;1.07;58.59
84524;BME280;74765;44.538;18.668;2024-01-30T03:02:32;101120.13;;;0.97;58.11
84524;BME280;74765;44.538;18.668;2024-01-30T03:04:59;101117.66;;;0.94;58.50
84524;BME280;74765;44.538;18.668;2024-01-30T03:07:25;101114.69;;;0.84;59.14
84524;BME280;74765;44.538;18.668;2024-01-30T03:09:50;101111.81;;;0.88;58.73
84524;BME280;74765;44.538;18.668;2024-01-30T03:12:16;101120.63;;;0.72;58.92
84524;BME280;74765;44.538;18.668;2024-01-30T03:14:42;101114.75;;;0.67;59.60
84524;BME280;74765;44.538;18.668;2024-01-30T03:17:07;101114.91;;;0.48;59.87
84524;BME280;74765;44.538;18.668;2024-01-30T03:19:33;101115.09;;;0.12;59.91
84524;BME280;74765;44.538;18.668;2024-01-30T03:21:59;101111.19;;;0.52;59.95
84524;BME280;74765;44.538;18.668;2024-01-30T03:24:25;101109.41;;;0.68;58.55
84524;BME280;74765;44.538;18.668;2024-01-30T03:26:51;101101.84;;;0.62;59.55
84524;BME280;74765;44.538;18.668;2024-01-30T03:29:16;101105.19;;;0.66;59.26
84524;BME280;74765;44.538;18.668;2024-01-30T03:31:42;101104.06;;;0.70;58.96
84524;BME280;74765;44.538;18.668;2024-01-30T03:34:08;101098.03;;;0.52;58.70
84524;BME280;74765;44.538;18.668;2024-01-30T03:36:33;101096.81;;;0.26;59.01
84524;BME280;74765;44.538;18.668;2024-01-30T03:39:00;101108.53;;;0.36;59.13
84524;BME280;74765;44.538;18.668;2024-01-30T03:41:26;101100.72;;;0.35;59.23
84524;BME280;74765;44.538;18.668;2024-01-30T03:43:52;101095.94;;;0.26;59.61
84524;BME280;74765;44.538;18.668;2024-01-30T03:46:18;101097.50;;;0.46;58.52
84524;BME280;74765;44.538;18.668;2024-01-30T03:48:45;101108.53;;;0.36;58.86
84524;BME280;74765;44.538;18.668;2024-01-30T03:51:10;101105.13;;;0.34;59.10
84524;BME280;74765;44.538;18.668;2024-01-30T03:53:43;101101.88;;;0.29;59.15
84524;BME280;74765;44.538;18.668;2024-01-30T03:56:09;101111.22;;;0.35;58.73
84524;BME280;74765;44.538;18.668;2024-01-30T03:58:35;101104.97;;;0.37;58.78
84524;BME280;74765;44.538;18.668;2024-01-30T04:01:01;101112.88;;;0.37;59.15
84524;BME280;74765;44.538;18.668;2024-01-30T04:03:27;101114.03;;;0.32;59.84
84524;BME280;74765;44.538;18.668;2024-01-30T04:05:53;101113.13;;;0.33;59.34
84524;BME280;74765;44.538;18.668;2024-01-30T04:08:19;101106.66;;;0.38;59.90
84524;BME280;74765;44.538;18.668;2024-01-30T04:10:44;101114.19;;;0.29;59.78
84524;BME280;74765;44.538;18.668;2024-01-30T04:13:10;101109.47;;;0.35;60.01
84524;BME280;74765;44.538;18.668;2024-01-30T04:15:36;101122.25;;;0.26;59.60
84524;BME280;74765;44.538;18.668;2024-01-30T04:18:02;101115.22;;;0.26;60.12
84524;BME280;74765;44.538;18.668;2024-01-30T04:20:29;101118.66;;;0.11;60.40
84524;BME280;74765;44.538;18.668;2024-01-30T04:22:55;101120.16;;;-0.01;60.64
84524;BME280;74765;44.538;18.668;2024-01-30T04:25:21;101126.53;;;0.11;60.43
84524;BME280;74765;44.538;18.668;2024-01-30T04:27:47;101126.41;;;0.14;59.58
84524;BME280;74765;44.538;18.668;2024-01-30T04:30:13;101127.00;;;0.02;60.23
84524;BME280;74765;44.538;18.668;2024-01-30T04:32:39;101117.28;;;0.04;59.97
84524;BME280;74765;44.538;18.668;2024-01-30T04:35:05;101124.88;;;-0.07;59.67
84524;BME280;74765;44.538;18.668;2024-01-30T04:37:31;101125.41;;;-0.01;59.41
84524;BME280;74765;44.538;18.668;2024-01-30T04:39:57;101128.13;;;-0.02;59.48
84524;BME280;74765;44.538;18.668;2024-01-30T04:42:23;101132.88;;;0.07;59.16
84524;BME280;74765;44.538;18.668;2024-01-30T04:44:49;101135.75;;;0.03;59.42
84524;BME280;74765;44.538;18.668;2024-01-30T04:47:15;101132.81;;;-0.09;59.94
84524;BME280;74765;44.538;18.668;2024-01-30T04:49:41;101136.63;;;0.03;58.63
84524;BME280;74765;44.538;18.668;2024-01-30T04:52:08;101134.91;;;0.02;59.06
84524;BME280;74765;44.538;18.668;2024-01-30T04:54:34;101139.31;;;0.02;58.75
84524;BME280;74765;44.538;18.668;2024-01-30T04:57:01;101130.19;;;0.09;59.11
84524;BME280;74765;44.538;18.668;2024-01-30T04:59:27;101133.06;;;0.04;58.87
84524;BME280;74765;44.538;18.668;2024-01-30T05:01:53;101134.06;;;0.02;59.09
84524;BME280;74765;44.538;18.668;2024-01-30T05:04:19;101134.69;;;-0.11;58.64
84524;BME280;74765;44.538;18.668;2024-01-30T05:06:44;101138.31;;;-0.13;59.38
84524;BME280;74765;44.538;18.668;2024-01-30T05:09:10;101131.28;;;-0.13;59.44
84524;BME280;74765;44.538;18.668;2024-01-30T05:11:39;101135.03;;;-0.34;59.66
84524;BME280;74765;44.538;18.668;2024-01-30T05:14:06;101134.78;;;-0.29;59.79
84524;BME280;74765;44.538;18.668;2024-01-30T05:16:32;101141.88;;;-0.49;59.34
84524;BME280;74765;44.538;18.668;2024-01-30T05:18:58;101138.69;;;-0.38;59.60
84524;BME280;74765;44.538;18.668;2024-01-30T05:21:24;101137.16;;;-0.42;59.48
84524;BME280;74765;44.538;18.668;2024-01-30T05:23:49;101139.72;;;-0.23;59.05
84524;BME280;74765;44.538;18.668;2024-01-30T05:26:15;101145.19;;;-0.28;59.05
84524;BME280;74765;44.538;18.668;2024-01-30T05:28:41;101144.03;;;-0.22;58.51
84524;BME280;74765;44.538;18.668;2024-01-30T05:31:06;101140.56;;;-0.40;59.21
84524;BME280;74765;44.538;18.668;2024-01-30T05:33:32;101143.81;;;-0.35;58.96
84524;BME280;74765;44.538;18.668;2024-01-30T05:35:58;101144.56;;;-0.67;60.48
84524;BME280;74765;44.538;18.668;2024-01-30T05:38:23;101149.28;;;-0.57;60.06
84524;BME280;74765;44.538;18.668;2024-01-30T05:40:49;101149.00;;;-0.33;59.11
84524;BME280;74765;44.538;18.668;2024-01-30T05:43:15;101146.97;;;-0.28;58.89
84524;BME280;74765;44.538;18.668;2024-01-30T05:45:41;101143.28;;;-0.07;58.12
84524;BME280;74765;44.538;18.668;2024-01-30T05:48:06;101149.31;;;-0.05;58.30
84524;BME280;74765;44.538;18.668;2024-01-30T05:50:32;101148.31;;;-0.20;58.03
84524;BME280;74765;44.538;18.668;2024-01-30T05:52:58;101136.72;;;-0.16;58.06
84524;BME280;74765;44.538;18.668;2024-01-30T05:55:23;101141.78;;;-0.13;58.59
84524;BME280;74765;44.538;18.668;2024-01-30T05:57:49;101134.44;;;-0.23;58.44
84524;BME280;74765;44.538;18.668;2024-01-30T06:00:16;101139.56;;;-0.20;58.72
84524;BME280;74765;44.538;18.668;2024-01-30T06:02:42;101145.19;;;-0.28;58.23
84524;BME280;74765;44.538;18.668;2024-01-30T06:05:08;101142.03;;;-0.34;58.82
84524;BME280;74765;44.538;18.668;2024-01-30T06:07:34;101151.41;;;-0.29;59.04
84524;BME280;74765;44.538;18.668;2024-01-30T06:10:00;101141.72;;;-0.28;59.31
84524;BME280;74765;44.538;18.668;2024-01-30T06:12:27;101150.16;;;-0.22;59.10
84524;BME280;74765;44.538;18.668;2024-01-30T06:14:53;101142.34;;;-0.06;58.55
84524;BME280;74765;44.538;18.668;2024-01-30T06:17:22;101139.84;;;-0.09;58.67
84524;BME280;74765;44.538;18.668;2024-01-30T06:19:48;101137.41;;;-0.29;58.68
84524;BME280;74765;44.538;18.668;2024-01-30T06:22:15;101146.06;;;-0.27;59.39
84524;BME280;74765;44.538;18.668;2024-01-30T06:24:41;101143.75;;;-0.33;58.69
84524;BME280;74765;44.538;18.668;2024-01-30T06:27:07;101149.63;;;-0.11;58.50
84524;BME280;74765;44.538;18.668;2024-01-30T06:29:33;101157.06;;;0.31;57.88
84524;BME280;74765;44.538;18.668;2024-01-30T06:31:59;101155.78;;;0.55;56.39
84524;BME280;74765;44.538;18.668;2024-01-30T06:34:25;101162.88;;;0.20;56.41
84524;BME280;74765;44.538;18.668;2024-01-30T06:36:52;101152.66;;;0.80;55.25
84524;BME280;74765;44.538;18.668;2024-01-30T06:39:17;101150.88;;;0.96;54.72
84524;BME280;74765;44.538;18.668;2024-01-30T06:41:43;101150.16;;;1.24;54.77
84524;BME280;74765;44.538;18.668;2024-01-30T06:44:12;101146.13;;;1.94;53.18
84524;BME280;74765;44.538;18.668;2024-01-30T06:46:38;101149.81;;;2.34;51.48
84524;BME280;74765;44.538;18.668;2024-01-30T06:49:04;101145.69;;;2.58;50.96
84524;BME280;74765;44.538;18.668;2024-01-30T06:51:30;101141.16;;;3.15;49.49
84524;BME280;74765;44.538;18.668;2024-01-30T06:53:58;101149.13;;;4.07;47.38
84524;BME280;74765;44.538;18.668;2024-01-30T06:56:24;101148.69;;;4.76;45.32
84524;BME280;74765;44.538;18.668;2024-01-30T06:58:51;101146.50;;;5.06;44.21
84524;BME280;74765;44.538;18.668;2024-01-30T07:01:17;101148.41;;;5.04;43.29
84524;BME280;74765;44.538;18.668;2024-01-30T07:03:42;101147.78;;;5.72;42.08
84524;BME280;74765;44.538;18.668;2024-01-30T07:06:09;101147.63;;;6.43;40.75
84524;BME280;74765;44.538;18.668;2024-01-30T07:08:37;101145.25;;;6.74;40.62
84524;BME280;74765;44.538;18.668;2024-01-30T07:11:07;101139.41;;;6.80;40.04
84524;BME280;74765;44.538;18.668;2024-01-30T07:13:34;101146.31;;;6.93;39.26
84524;BME280;74765;44.538;18.668;2024-01-30T07:16:00;101139.72;;;7.63;38.80
84524;BME280;74765;44.538;18.668;2024-01-30T07:18:25;101144.09;;;7.64;38.99
84524;BME280;74765;44.538;18.668;2024-01-30T07:20:52;101144.94;;;7.21;39.59
84524;BME280;74765;44.538;18.668;2024-01-30T07:23:17;101149.56;;;8.24;37.84
84524;BME280;74765;44.538;18.668;2024-01-30T07:25:44;101142.78;;;8.62;36.44
84524;BME280;74765;44.538;18.668;2024-01-30T07:28:10;101141.50;;;8.56;35.80
84524;BME280;74765;44.538;18.668;2024-01-30T07:30:37;101147.75;;;8.76;35.84
84524;BME280;74765;44.538;18.668;2024-01-30T07:33:04;101147.59;;;8.68;36.02
84524;BME280;74765;44.538;18.668;2024-01-30T07:35:30;101154.03;;;8.65;36.36
84524;BME280;74765;44.538;18.668;2024-01-30T07:37:56;101146.50;;;7.87;37.26
84524;BME280;74765;44.538;18.668;2024-01-30T07:40:22;101145.25;;;8.84;36.14
84524;BME280;74765;44.538;18.668;2024-01-30T07:42:49;101141.72;;;9.23;36.64
84524;BME280;74765;44.538;18.668;2024-01-30T07:45:15;101148.91;;;9.42;35.47
84524;BME280;74765;44.538;18.668;2024-01-30T07:47:40;101137.78;;;9.28;35.33
84524;BME280;74765;44.538;18.668;2024-01-30T07:50:08;101139.22;;;9.60;36.56
84524;BME280;74765;44.538;18.668;2024-01-30T07:52:34;101153.44;;;8.92;36.79
84524;BME280;74765;44.538;18.668;2024-01-30T07:55:00;101143.72;;;10.18;34.88
84524;BME280;74765;44.538;18.668;2024-01-30T07:57:26;101138.78;;;10.69;33.92
84524;BME280;74765;44.538;18.668;2024-01-30T07:59:52;101146.00;;;10.96;34.46
84524;BME280;74765;44.538;18.668;2024-01-30T08:02:18;101140.41;;;10.89;33.56
84524;BME280;74765;44.538;18.668;2024-01-30T08:04:43;101144.63;;;10.92;34.78
84524;BME280;74765;44.538;18.668;2024-01-30T08:07:14;101144.69;;;10.36;35.29
84524;BME280;74765;44.538;18.668;2024-01-30T08:09:40;101147.41;;;9.49;36.62
84524;BME280;74765;44.538;18.668;2024-01-30T08:12:06;101142.28;;;9.27;37.63
84524;BME280;74765;44.538;18.668;2024-01-30T08:14:32;101145.84;;;8.57;39.39
84524;BME280;74765;44.538;18.668;2024-01-30T08:16:57;101150.97;;;8.40;39.44
84524;BME280;74765;44.538;18.668;2024-01-30T08:19:23;101150.78;;;8.31;40.20
84524;BME280;74765;44.538;18.668;2024-01-30T08:21:49;101148.94;;;8.32;40.22
84524;BME280;74765;44.538;18.668;2024-01-30T08:24:15;101142.94;;;9.00;39.49
84524;BME280;74765;44.538;18.668;2024-01-30T08:26:41;101149.31;;;8.07;40.86
84524;BME280;74765;44.538;18.668;2024-01-30T08:29:07;101150.69;;;8.43;40.60
84524;BME280;74765;44.538;18.668;2024-01-30T08:31:32;101139.22;;;8.52;40.09
84524;BME280;74765;44.538;18.668;2024-01-30T08:33:58;101144.44;;;8.84;39.77
84524;BME280;74765;44.538;18.668;2024-01-30T08:36:25;101143.78;;;9.01;39.88
84524;BME280;74765;44.538;18.668;2024-01-30T08:38:50;101151.66;;;8.21;41.50
84524;BME280;74765;44.538;18.668;2024-01-30T08:41:17;101149.03;;;8.51;41.90
84524;BME280;74765;44.538;18.668;2024-01-30T08:43:43;101145.41;;;8.52;42.06
84524;BME280;74765;44.538;18.668;2024-01-30T08:46:12;101138.03;;;9.05;40.90
84524;BME280;74765;44.538;18.668;2024-01-30T08:48:44;101145.44;;;9.71;39.54
84524;BME280;74765;44.538;18.668;2024-01-30T08:51:10;101140.06;;;10.28;39.04
84524;BME280;74765;44.538;18.668;2024-01-30T08:53:36;101139.94;;;10.10;39.27
84524;BME280;74765;44.538;18.668;2024-01-30T08:56:06;101131.63;;;10.23;39.13
84524;BME280;74765;44.538;18.668;2024-01-30T08:58:32;101126.97;;;10.35;38.53
84524;BME280;74765;44.538;18.668;2024-01-30T09:00:58;101131.19;;;10.28;38.76
84524;BME280;74765;44.538;18.668;2024-01-30T09:03:24;101126.50;;;10.49;38.45
84524;BME280;74765;44.538;18.668;2024-01-30T09:05:50;101122.06;;;10.11;39.21
84524;BME280;74765;44.538;18.668;2024-01-30T09:08:16;101125.19;;;9.87;40.02
84524;BME280;74765;44.538;18.668;2024-01-30T09:10:42;101132.16;;;10.36;39.27
84524;BME280;74765;44.538;18.668;2024-01-30T09:13:08;101135.72;;;10.74;39.21
84524;BME280;74765;44.538;18.668;2024-01-30T09:15:34;101132.81;;;11.12;37.92
84524;BME280;74765;44.538;18.668;2024-01-30T09:18:01;101126.44;;;10.95;38.13
84524;BME280;74765;44.538;18.668;2024-01-30T09:20:30;101126.56;;;10.94;39.17
84524;BME280;74765;44.538;18.668;2024-01-30T09:22:56;101125.28;;;11.43;37.76
84524;BME280;74765;44.538;18.668;2024-01-30T09:25:22;101126.69;;;12.26;36.27
84524;BME280;74765;44.538;18.668;2024-01-30T09:27:47;101127.91;;;12.32;35.88
84524;BME280;74765;44.538;18.668;2024-01-30T09:30:13;101129.31;;;12.18;35.97
84524;BME280;74765;44.538;18.668;2024-01-30T09:32:43;101120.06;;;12.38;36.26
84524;BME280;74765;44.538;18.668;2024-01-30T09:35:09;101127.25;;;12.12;36.57
84524;BME280;74765;44.538;18.668;2024-01-30T09:37:38;101120.53;;;11.55;37.70
84524;BME280;74765;44.538;18.668;2024-01-30T09:40:04;101118.69;;;11.37;38.18
84524;BME280;74765;44.538;18.668;2024-01-30T09:42:34;101124.56;;;12.12;36.93
84524;BME280;74765;44.538;18.668;2024-01-30T09:45:02;101114.41;;;12.75;35.92
84524;BME280;74765;44.538;18.668;2024-01-30T09:47:40;101120.91;;;12.13;36.88
84524;BME280;74765;44.538;18.668;2024-01-30T09:50:11;101106.53;;;11.78;37.83
84524;BME280;74765;44.538;18.668;2024-01-30T09:52:40;101112.34;;;12.35;36.51
84524;BME280;74765;44.538;18.668;2024-01-30T09:55:15;101111.97;;;12.30;36.26
84524;BME280;74765;44.538;18.668;2024-01-30T09:57:42;101105.66;;;11.88;37.36
84524;BME280;74765;44.538;18.668;2024-01-30T10:00:08;101104.00;;;11.95;37.90
84524;BME280;74765;44.538;18.668;2024-01-30T10:02:51;101102.09;;;11.52;37.95
84524;BME280;74765;44.538;18.668;2024-01-30T10:05:19;101096.19;;;12.01;37.34
84524;BME280;74765;44.538;18.668;2024-01-30T10:07:58;101086.88;;;12.39;37.27
84524;BME280;74765;44.538;18.668;2024-01-30T10:10:24;101088.09;;;12.19;36.88
84524;BME280;74765;44.538;18.668;2024-01-30T10:12:54;101084.53;;;12.10;37.26
84524;BME280;74765;44.538;18.668;2024-01-30T10:15:19;101074.91;;;12.00;37.12
84524;BME280;74765;44.538;18.668;2024-01-30T10:17:45;101077.47;;;11.48;37.63
84524;BME280;74765;44.538;18.668;2024-01-30T10:20:12;101076.25;;;11.78;37.70
84524;BME280;74765;44.538;18.668;2024-01-30T10:22:42;101071.03;;;12.02;36.86
84524;BME280;74765;44.538;18.668;2024-01-30T10:25:12;101073.16;;;12.16;37.00
84524;BME280;74765;44.538;18.668;2024-01-30T10:27:39;101061.59;;;12.16;37.13
84524;BME280;74765;44.538;18.668;2024-01-30T10:30:06;101068.66;;;11.38;37.66
84524;BME280;74765;44.538;18.668;2024-01-30T10:32:32;101065.81;;;11.93;37.61
84524;BME280;74765;44.538;18.668;2024-01-30T10:34:58;101056.75;;;11.94;37.30
84524;BME280;74765;44.538;18.668;2024-01-30T10:37:25;101047.34;;;11.90;37.26
84524;BME280;74765;44.538;18.668;2024-01-30T10:39:53;101043.91;;;12.31;37.16
84524;BME280;74765;44.538;18.668;2024-01-30T10:42:25;101038.97;;;12.44;36.90
84524;BME280;74765;44.538;18.668;2024-01-30T10:45:12;101029.84;;;12.71;36.29
84524;BME280;74765;44.538;18.668;2024-01-30T10:47:54;101038.06;;;13.28;34.33
84524;BME280;74765;44.538;18.668;2024-01-30T10:50:24;101035.28;;;12.87;34.74
84524;BME280;74765;44.538;18.668;2024-01-30T10:52:50;101023.16;;;12.83;34.71
84524;BME280;74765;44.538;18.668;2024-01-30T10:55:18;101019.31;;;12.78;34.15
84524;BME280;74765;44.538;18.668;2024-01-30T10:57:44;101025.94;;;12.57;35.09
84524;BME280;74765;44.538;18.668;2024-01-30T11:00:11;101023.22;;;12.49;36.48
84524;BME280;74765;44.538;18.668;2024-01-30T11:02:40;101011.72;;;12.31;35.28
84524;BME280;74765;44.538;18.668;2024-01-30T11:05:07;101005.31;;;12.24;35.17
84524;BME280;74765;44.538;18.668;2024-01-30T11:07:34;100996.69;;;12.46;34.57
84524;BME280;74765;44.538;18.668;2024-01-30T11:10:01;100998.28;;;12.23;32.95
84524;BME280;74765;44.538;18.668;2024-01-30T11:12:28;100995.22;;;12.52;32.51
84524;BME280;74765;44.538;18.668;2024-01-30T11:15:13;100990.31;;;12.39;32.76
84524;BME280;74765;44.538;18.668;2024-01-30T11:17:50;100993.28;;;12.02;33.41
84524;BME280;74765;44.538;18.668;2024-01-30T11:20:20;100989.28;;;11.72;33.38
84524;BME280;74765;44.538;18.668;2024-01-30T11:22:47;100991.78;;;12.00;33.84
84524;BME280;74765;44.538;18.668;2024-01-30T11:25:17;100983.47;;;12.11;32.24
84524;BME280;74765;44.538;18.668;2024-01-30T11:27:53;100981.44;;;11.79;33.47
84524;BME280;74765;44.538;18.668;2024-01-30T11:30:27;100980.91;;;12.35;32.51
84524;BME280;74765;44.538;18.668;2024-01-30T11:33:06;100985.66;;;12.49;30.82
84524;BME280;74765;44.538;18.668;2024-01-30T11:35:44;100981.59;;;11.34;30.97
84524;BME280;74765;44.538;18.668;2024-01-30T11:38:11;100978.16;;;11.93;31.19
84524;BME280;74765;44.538;18.668;2024-01-30T11:40:39;100960.13;;;12.37;30.51
84524;BME280;74765;44.538;18.668;2024-01-30T11:43:06;100971.91;;;12.52;30.34
84524;BME280;74765;44.538;18.668;2024-01-30T11:45:34;100960.13;;;12.45;30.33
84524;BME280;74765;44.538;18.668;2024-01-30T11:48:00;100958.50;;;12.52;29.78
84524;BME280;74765;44.538;18.668;2024-01-30T11:50:35;100965.78;;;11.92;30.99
84524;BME280;74765;44.538;18.668;2024-01-30T11:53:01;100956.53;;;12.79;34.70
84524;BME280;74765;44.538;18.668;2024-01-30T11:55:29;100958.28;;;13.12;30.12
84524;BME280;74765;44.538;18.668;2024-01-30T11:57:55;100948.84;;;12.25;31.67
84524;BME280;74765;44.538;18.668;2024-01-30T12:00:21;100945.84;;;12.95;31.05
84524;BME280;74765;44.538;18.668;2024-01-30T12:02:52;100949.47;;;12.61;31.89
84524;BME280;74765;44.538;18.668;2024-01-30T12:05:25;100936.28;;;13.00;32.71
84524;BME280;74765;44.538;18.668;2024-01-30T12:07:51;100945.19;;;13.17;31.63
84524;BME280;74765;44.538;18.668;2024-01-30T12:10:17;100934.78;;;13.22;29.79
84524;BME280;74765;44.538;18.668;2024-01-30T12:12:47;100931.75;;;13.01;30.21
84524;BME280;74765;44.538;18.668;2024-01-30T12:15:14;100930.91;;;13.08;29.31
84524;BME280;74765;44.538;18.668;2024-01-30T12:17:41;100927.00;;;12.79;30.58
84524;BME280;74765;44.538;18.668;2024-01-30T12:20:11;100921.28;;;12.73;30.52
84524;BME280;74765;44.538;18.668;2024-01-30T12:22:42;100922.78;;;12.60;31.05
84524;BME280;74765;44.538;18.668;2024-01-30T12:25:10;100913.88;;;12.43;30.05
84524;BME280;74765;44.538;18.668;2024-01-30T12:27:36;100914.91;;;12.58;30.14
84524;BME280;74765;44.538;18.668;2024-01-30T12:30:12;100907.88;;;12.65;30.39
84524;BME280;74765;44.538;18.668;2024-01-30T12:32:45;100907.88;;;12.73;30.40
84524;BME280;74765;44.538;18.668;2024-01-30T12:35:11;100910.47;;;12.33;30.76
84524;BME280;74765;44.538;18.668;2024-01-30T12:37:38;100905.81;;;12.35;30.95
84524;BME280;74765;44.538;18.668;2024-01-30T12:40:04;100911.94;;;11.77;31.97
84524;BME280;74765;44.538;18.668;2024-01-30T12:42:31;100905.63;;;12.37;31.95
84524;BME280;74765;44.538;18.668;2024-01-30T12:44:58;100901.28;;;12.44;30.86